sensor_id;sensor_type;location;lat;lon;timestamp;pressure;altitude;pressure_sealevel;temperature;humidity
69318;BME280;56457;52.190;4.440;2023-04-01T00:00:40;99225.84;;;9.03;100.00
69318;BME280;56457;52.190;4.440;2023-04-01T00:01:41;99232.06;;;8.99;100.00
69318;BME280;56457;52.190;4.440;2023-04-01T00:02:41;99226.91;;;8.96;100.00
69318;BME280;56457;52.190;4.440;2023-04-01T00:03:42;99226.13;;;8.93;100.00
69318;BME280;56457;52.190;4.440;2023-04-01T00:04:42;99231.25;;;8.97;100.00
69318;BME280;56457;52.190;4.440;2023-04-01T00:05:43;99232.97;;;8.98;100.00
69318;BME280;56457;52.190;4.440;2023-04-01T00:06:43;99234.78;;;8.96;100.00
69318;BME280;56457;52.190;4.440;2023-04-01T00:07:45;99229.59;;;8.95;100.00
69318;BME280;56457;52.190;4.440;2023-04-01T00:08:46;99233.91;;;8.96;100.00
69318;BME280;56457;52.190;4.440;2023-04-01T00:09:46;99235.47;;;9.03;100.00
69318;BME280;56457;52.190;4.440;2023-04-01T00:10:47;99240.81;;;8.98;100.00
69318;BME280;56457;52.190;4.440;2023-04-01T00:11:47;99239.00;;;9.00;100.00
69318;BME280;56457;52.190;4.440;2023-04-01T00:12:48;99241.66;;;8.99;100.00
69318;BME280;56457;52.190;4.440;2023-04-01T00:13:48;99243.44;;;8.98;100.00
69318;BME280;56457;52.190;4.440;2023-04-01T00:14:49;99241.75;;;8.96;100.00
69318;BME280;56457;52.190;4.440;2023-04-01T00:15:49;99247.00;;;8.94;100.00
69318;BME280;56457;52.190;4.440;2023-04-01T00:16:50;99249.78;;;8.88;100.00
69318;BME280;56457;52.190;4.440;2023-04-01T00:17:50;99252.34;;;8.91;100.00
69318;BME280;56457;52.190;4.440;2023-04-01T00:18:51;99247.16;;;8.88;100.00
69318;BME280;56457;52.190;4.440;2023-04-01T00:19:51;99248.06;;;8.87;100.00
69318;BME280;56457;52.190;4.440;2023-04-01T00:20:52;99249.78;;;8.88;100.00
69318;BME280;56457;52.190;4.440;2023-04-01T00:21:52;99261.13;;;8.88;100.00
69318;BME280;56457;52.190;4.440;2023-04-01T00:22:53;99257.63;;;8.89;100.00
69318;BME280;56457;52.190;4.440;2023-04-01T00:23:54;99260.28;;;8.86;100.00
69318;BME280;56457;52.190;4.440;2023-04-01T00:24:54;99253.25;;;8.90;100.00
69318;BME280;56457;52.190;4.440;2023-04-01T00:25:55;99252.22;;;8.96;100.00
69318;BME280;56457;52.190;4.440;2023-04-01T00:26:55;99254.09;;;8.90;100.00
69318;BME280;56457;52.190;4.440;2023-04-01T00:27:55;99261.88;;;8.92;100.00
69318;BME280;56457;52.190;4.440;2023-04-01T00:28:56;99259.31;;;8.90;100.00
69318;BME280;56457;52.190;4.440;2023-04-01T00:29:56;99262.97;;;8.85;100.00
69318;BME280;56457;52.190;4.440;2023-04-01T00:30:57;99262.06;;;8.86;100.00
69318;BME280;56457;52.190;4.440;2023-04-01T00:31:57;99263.00;;;8.82;100.00
69318;BME280;56457;52.190;4.440;2023-04-01T00:32:57;99263.16;;;8.77;100.00
69318;BME280;56457;52.190;4.440;2023-04-01T00:33:58;99271.75;;;8.81;100.00
69318;BME280;56457;52.190;4.440;2023-04-01T00:34:59;99258.75;;;8.79;100.00
69318;BME280;56457;52.190;4.440;2023-04-01T00:36:09;99270.06;;;8.80;100.00
69318;BME280;56457;52.190;4.440;2023-04-01T00:37:10;99277.91;;;8.80;100.00
69318;BME280;56457;52.190;4.440;2023-04-01T00:38:11;99271.84;;;8.78;100.00
69318;BME280;56457;52.190;4.440;2023-04-01T00:39:12;99270.91;;;8.80;100.00
69318;BME280;56457;52.190;4.440;2023-04-01T00:40:46;99266.63;;;8.78;100.00
69318;BME280;56457;52.190;4.440;2023-04-01T00:41:39;99275.38;;;8.77;100.00
69318;BME280;56457;52.190;4.440;2023-04-01T00:42:40;99275.44;;;8.74;100.00
69318;BME280;56457;52.190;4.440;2023-04-01T00:43:41;99279.75;;;8.75;100.00
69318;BME280;56457;52.190;4.440;2023-04-01T00:44:42;99272.00;;;8.72;100.00
69318;BME280;56457;52.190;4.440;2023-04-01T00:45:43;99277.19;;;8.73;100.00
69318;BME280;56457;52.190;4.440;2023-04-01T00:46:43;99280.66;;;8.74;100.00
69318;BME280;56457;52.190;4.440;2023-04-01T00:47:44;99278.94;;;8.73;100.00
69318;BME280;56457;52.190;4.440;2023-04-01T00:48:46;99281.50;;;8.76;100.00
69318;BME280;56457;52.190;4.440;2023-04-01T00:49:48;99280.63;;;8.75;100.00
69318;BME280;56457;52.190;4.440;2023-04-01T00:50:50;99293.69;;;8.75;100.00
69318;BME280;56457;52.190;4.440;2023-04-01T00:51:53;99284.13;;;8.76;100.00
69318;BME280;56457;52.190;4.440;2023-04-01T00:52:55;99290.22;;;8.75;100.00
69318;BME280;56457;52.190;4.440;2023-04-01T00:53:56;99294.59;;;8.76;100.00
69318;BME280;56457;52.190;4.440;2023-04-01T00:54:58;99288.47;;;8.75;100.00
69318;BME280;56457;52.190;4.440;2023-04-01T00:56:03;99288.50;;;8.74;100.00
69318;BME280;56457;52.190;4.440;2023-04-01T00:57:05;99294.66;;;8.73;100.00
69318;BME280;56457;52.190;4.440;2023-04-01T00:58:10;99288.56;;;8.72;100.00
69318;BME280;56457;52.190;4.440;2023-04-01T00:59:15;99294.66;;;8.73;100.00
69318;BME280;56457;52.190;4.440;2023-04-01T01:00:16;99296.34;;;8.74;100.00
69318;BME280;56457;52.190;4.440;2023-04-01T01:01:17;99297.22;;;8.74;100.00
69318;BME280;56457;52.190;4.440;2023-04-01T01:02:19;99298.22;;;8.69;100.00
69318;BME280;56457;52.190;4.440;2023-04-01T01:03:19;99299.06;;;8.71;100.00
69318;BME280;56457;52.190;4.440;2023-04-01T01:04:27;99305.22;;;8.68;100.00
69318;BME280;56457;52.190;4.440;2023-04-01T01:06:48;99297.25;;;8.73;100.00
69318;BME280;56457;52.190;4.440;2023-04-01T01:07:57;99310.34;;;8.73;100.00
69318;BME280;56457;52.190;4.440;2023-04-01T01:09:06;99311.28;;;8.69;100.00
69318;BME280;56457;52.190;4.440;2023-04-01T01:10:18;99299.97;;;8.70;100.00
69318;BME280;56457;52.190;4.440;2023-04-01T01:11:22;99313.91;;;8.69;100.00
69318;BME280;56457;52.190;4.440;2023-04-01T01:13:53;99312.03;;;8.74;100.00
69318;BME280;56457;52.190;4.440;2023-04-01T01:15:16;99316.47;;;8.72;100.00
69318;BME280;56457;52.190;4.440;2023-04-01T01:16:29;99313.03;;;8.70;100.00
69318;BME280;56457;52.190;4.440;2023-04-01T01:22:31;99324.44;;;8.66;100.00
69318;BME280;56457;52.190;4.440;2023-04-01T01:27:11;99326.97;;;8.70;100.00
69318;BME280;56457;52.190;4.440;2023-04-01T01:28:18;99333.09;;;8.68;100.00
69318;BME280;56457;52.190;4.440;2023-04-01T01:29:31;99333.06;;;8.71;100.00
69318;BME280;56457;52.190;4.440;2023-04-01T01:30:37;99331.34;;;8.70;100.00
69318;BME280;56457;52.190;4.440;2023-04-01T01:32:58;99328.81;;;8.65;100.00
69318;BME280;56457;52.190;4.440;2023-04-01T01:34:11;99334.75;;;8.72;100.00
69318;BME280;56457;52.190;4.440;2023-04-01T01:36:33;99332.25;;;8.67;100.00
69318;BME280;56457;52.190;4.440;2023-04-01T01:37:34;99345.38;;;8.66;100.00
69318;BME280;56457;52.190;4.440;2023-04-01T01:38:35;99346.28;;;8.65;100.00
69318;BME280;56457;52.190;4.440;2023-04-01T01:39:36;99340.19;;;8.62;100.00
69318;BME280;56457;52.190;4.440;2023-04-01T01:40:38;99335.88;;;8.61;100.00
69318;BME280;56457;52.190;4.440;2023-04-01T01:41:41;99344.56;;;8.63;100.00
69318;BME280;56457;52.190;4.440;2023-04-01T01:42:50;99354.13;;;8.65;100.00
69318;BME280;56457;52.190;4.440;2023-04-01T01:43:51;99348.88;;;8.65;100.00
69318;BME280;56457;52.190;4.440;2023-04-01T01:44:54;99352.50;;;8.59;100.00
69318;BME280;56457;52.190;4.440;2023-04-01T01:45:57;99355.88;;;8.62;100.00
69318;BME280;56457;52.190;4.440;2023-04-01T01:47:00;99354.97;;;8.65;100.00
69318;BME280;56457;52.190;4.440;2023-04-01T01:48:01;99360.09;;;8.68;100.00
69318;BME280;56457;52.190;4.440;2023-04-01T01:49:02;99359.25;;;8.68;100.00
69318;BME280;56457;52.190;4.440;2023-04-01T01:50:04;99360.16;;;8.67;100.00
69318;BME280;56457;52.190;4.440;2023-04-01T01:51:05;99356.75;;;8.63;100.00
69318;BME280;56457;52.190;4.440;2023-04-01T01:52:06;99355.88;;;8.62;100.00
69318;BME280;56457;52.190;4.440;2023-04-01T01:53:10;99362.84;;;8.63;100.00
69318;BME280;56457;52.190;4.440;2023-04-01T01:54:14;99359.34;;;8.63;100.00
69318;BME280;56457;52.190;4.440;2023-04-01T01:56:25;99363.66;;;8.66;100.00
69318;BME280;56457;52.190;4.440;2023-04-01T01:57:36;99368.94;;;8.64;100.00
69318;BME280;56457;52.190;4.440;2023-04-01T01:58:47;99368.94;;;8.64;100.00
69318;BME280;56457;52.190;4.440;2023-04-01T01:59:49;99359.41;;;8.61;100.00
69318;BME280;56457;52.190;4.440;2023-04-01T02:00:53;99368.09;;;8.62;100.00
69318;BME280;56457;52.190;4.440;2023-04-01T02:01:55;99371.56;;;8.62;100.00
69318;BME280;56457;52.190;4.440;2023-04-01T02:02:56;99373.31;;;8.63;100.00
69318;BME280;56457;52.190;4.440;2023-04-01T02:03:58;99375.03;;;8.65;100.00
69318;BME280;56457;52.190;4.440;2023-04-01T02:04:58;99378.47;;;8.67;100.00
69318;BME280;56457;52.190;4.440;2023-04-01T02:05:59;99368.91;;;8.66;100.00
69318;BME280;56457;52.190;4.440;2023-04-01T02:07:02;99375.88;;;8.65;100.00
69318;BME280;56457;52.190;4.440;2023-04-01T02:08:11;99380.31;;;8.61;100.00
69318;BME280;56457;52.190;4.440;2023-04-01T02:09:13;99377.66;;;8.65;100.00
69318;BME280;56457;52.190;4.440;2023-04-01T02:10:13;99385.50;;;8.65;100.00
69318;BME280;56457;52.190;4.440;2023-04-01T02:11:17;99382.81;;;8.66;100.00
69318;BME280;56457;52.190;4.440;2023-04-01T02:12:21;99385.34;;;8.69;100.00
69318;BME280;56457;52.190;4.440;2023-04-01T02:13:37;99388.91;;;8.67;100.00
69318;BME280;56457;52.190;4.440;2023-04-01T02:15:41;99393.19;;;8.71;100.00
69318;BME280;56457;52.190;4.440;2023-04-01T02:17:43;99394.03;;;8.71;100.00
69318;BME280;56457;52.190;4.440;2023-04-01T02:18:45;99397.44;;;8.75;100.00
69318;BME280;56457;52.190;4.440;2023-04-01T02:19:50;99405.28;;;8.75;100.00
69318;BME280;56457;52.190;4.440;2023-04-01T02:20:53;99400.09;;;8.73;100.00
69318;BME280;56457;52.190;4.440;2023-04-01T02:21:56;99407.03;;;8.74;100.00
69318;BME280;56457;52.190;4.440;2023-04-01T02:22:57;99405.28;;;8.75;100.00
69318;BME280;56457;52.190;4.440;2023-04-01T02:24:00;99407.03;;;8.74;100.00
69318;BME280;56457;52.190;4.440;2023-04-01T02:25:09;99403.53;;;8.75;100.00
69318;BME280;56457;52.190;4.440;2023-04-01T02:26:10;99405.22;;;8.78;100.00
69318;BME280;56457;52.190;4.440;2023-04-01T02:27:11;99404.28;;;8.80;100.00
69318;BME280;56457;52.190;4.440;2023-04-01T02:28:12;99405.97;;;8.83;100.00
69318;BME280;56457;52.190;4.440;2023-04-01T02:29:14;99410.38;;;8.81;100.00
69318;BME280;56457;52.190;4.440;2023-04-01T02:30:16;99409.44;;;8.83;100.00
69318;BME280;56457;52.190;4.440;2023-04-01T02:31:17;99412.88;;;8.85;100.00
69318;BME280;56457;52.190;4.440;2023-04-01T02:32:18;99415.50;;;8.85;100.00
69318;BME280;56457;52.190;4.440;2023-04-01T02:33:19;99408.47;;;8.87;100.00
69318;BME280;56457;52.190;4.440;2023-04-01T02:34:21;99421.53;;;8.89;100.00
69318;BME280;56457;52.190;4.440;2023-04-01T02:35:22;99419.78;;;8.88;100.00
69318;BME280;56457;52.190;4.440;2023-04-01T02:36:23;99420.66;;;8.88;100.00
69318;BME280;56457;52.190;4.440;2023-04-01T02:37:23;99420.63;;;8.90;100.00
69318;BME280;56457;52.190;4.440;2023-04-01T02:38:24;99422.41;;;8.88;100.00
69318;BME280;56457;52.190;4.440;2023-04-01T02:39:25;99423.25;;;8.90;100.00
69318;BME280;56457;52.190;4.440;2023-04-01T02:40:26;99424.16;;;8.89;100.00
69318;BME280;56457;52.190;4.440;2023-04-01T02:41:26;99420.63;;;8.90;100.00
69318;BME280;56457;52.190;4.440;2023-04-01T02:42:27;99429.38;;;8.87;100.00
69318;BME280;56457;52.190;4.440;2023-04-01T02:43:27;99431.00;;;8.93;100.00
69318;BME280;56457;52.190;4.440;2023-04-01T02:44:28;99424.81;;;8.97;100.00
69318;BME280;56457;52.190;4.440;2023-04-01T02:45:28;99430.94;;;8.96;100.00
69318;BME280;56457;52.190;4.440;2023-04-01T02:46:29;99429.22;;;8.95;100.00
69318;BME280;56457;52.190;4.440;2023-04-01T02:47:29;99440.50;;;8.97;100.00
69318;BME280;56457;52.190;4.440;2023-04-01T02:48:30;99432.66;;;8.97;100.00
69318;BME280;56457;52.190;4.440;2023-04-01T02:49:31;99439.59;;;8.98;100.00
69318;BME280;56457;52.190;4.440;2023-04-01T02:50:31;99440.28;;;9.06;100.00
69318;BME280;56457;52.190;4.440;2023-04-01T02:51:32;99441.31;;;9.01;100.00
69318;BME280;56457;52.190;4.440;2023-04-01T02:52:33;99436.94;;;9.01;100.00
69318;BME280;56457;52.190;4.440;2023-04-01T02:53:33;99442.13;;;9.03;100.00
69318;BME280;56457;52.190;4.440;2023-04-01T02:54:34;99447.41;;;9.01;100.00
69318;BME280;56457;52.190;4.440;2023-04-01T02:55:35;99447.34;;;9.03;100.00
69318;BME280;56457;52.190;4.440;2023-04-01T02:56:35;99446.50;;;9.02;100.00
69318;BME280;56457;52.190;4.440;2023-04-01T02:57:35;99445.50;;;9.06;100.00
69318;BME280;56457;52.190;4.440;2023-04-01T02:58:36;99459.44;;;9.08;100.00
69318;BME280;56457;52.190;4.440;2023-04-01T02:59:36;99446.41;;;9.05;100.00
69318;BME280;56457;52.190;4.440;2023-04-01T03:00:37;99455.13;;;9.06;100.00
69318;BME280;56457;52.190;4.440;2023-04-01T03:01:37;99451.63;;;9.05;100.00
69318;BME280;56457;52.190;4.440;2023-04-01T03:02:38;99464.75;;;9.04;100.00
69318;BME280;56457;52.190;4.440;2023-04-01T03:03:39;99458.78;;;8.99;100.00
69318;BME280;56457;52.190;4.440;2023-04-01T03:04:39;99464.84;;;9.01;100.00
69318;BME280;56457;52.190;4.440;2023-04-01T03:05:40;99461.38;;;8.99;100.00
69318;BME280;56457;52.190;4.440;2023-04-01T03:06:40;99464.00;;;8.99;100.00
69318;BME280;56457;52.190;4.440;2023-04-01T03:07:41;99464.88;;;8.99;100.00
69318;BME280;56457;52.190;4.440;2023-04-01T03:08:41;99469.13;;;9.03;100.00
69318;BME280;56457;52.190;4.440;2023-04-01T03:09:42;99476.13;;;9.03;100.00
69318;BME280;56457;52.190;4.440;2023-04-01T03:10:42;99471.00;;;8.98;100.00
69318;BME280;56457;52.190;4.440;2023-04-01T03:11:43;99472.84;;;8.95;100.00
69318;BME280;56457;52.190;4.440;2023-04-01T03:12:43;99478.06;;;8.95;100.00
69318;BME280;56457;52.190;4.440;2023-04-01T03:13:43;99472.69;;;9.01;100.00
69318;BME280;56457;52.190;4.440;2023-04-01T03:14:44;99481.47;;;8.98;100.00
69318;BME280;56457;52.190;4.440;2023-04-01T03:15:44;99480.50;;;9.02;100.00
69318;BME280;56457;52.190;4.440;2023-04-01T03:16:45;99482.19;;;9.05;100.00
69318;BME280;56457;52.190;4.440;2023-04-01T03:17:45;99483.94;;;9.04;100.00
69318;BME280;56457;52.190;4.440;2023-04-01T03:18:46;99483.06;;;9.04;100.00
69318;BME280;56457;52.190;4.440;2023-04-01T03:19:49;99482.31;;;8.99;100.00
69318;BME280;56457;52.190;4.440;2023-04-01T03:20:50;99484.88;;;9.02;100.00
69318;BME280;56457;52.190;4.440;2023-04-01T03:21:50;99487.59;;;8.97;100.00
69318;BME280;56457;52.190;4.440;2023-04-01T03:22:51;99495.41;;;8.99;100.00
69318;BME280;56457;52.190;4.440;2023-04-01T03:23:51;99492.91;;;8.93;100.00
69318;BME280;56457;52.190;4.440;2023-04-01T03:24:52;99487.78;;;8.89;100.00
69318;BME280;56457;52.190;4.440;2023-04-01T03:25:52;99493.81;;;8.92;100.00
69318;BME280;56457;52.190;4.440;2023-04-01T03:26:53;99500.00;;;8.87;100.00
69318;BME280;56457;52.190;4.440;2023-04-01T03:27:53;99503.47;;;8.89;100.00
69318;BME280;56457;52.190;4.440;2023-04-01T03:28:54;99501.63;;;8.93;100.00
69318;BME280;56457;52.190;4.440;2023-04-01T03:29:55;99507.56;;;9.00;100.00
69318;BME280;56457;52.190;4.440;2023-04-01T03:30:55;99501.47;;;9.01;100.00
69318;BME280;56457;52.190;4.440;2023-04-01T03:31:56;99507.66;;;8.97;100.00
69318;BME280;56457;52.190;4.440;2023-04-01T03:32:58;99511.22;;;8.93;100.00
69318;BME280;56457;52.190;4.440;2023-04-01T03:33:59;99504.22;;;8.95;100.00
69318;BME280;56457;52.190;4.440;2023-04-01T03:35:00;99513.72;;;8.99;100.00
69318;BME280;56457;52.190;4.440;2023-04-01T03:36:00;99512.81;;;9.00;100.00
69318;BME280;56457;52.190;4.440;2023-04-01T03:37:01;99522.41;;;9.01;100.00
69318;BME280;56457;52.190;4.440;2023-04-01T03:38:01;99518.03;;;9.00;100.00
69318;BME280;56457;52.190;4.440;2023-04-01T03:39:02;99526.81;;;8.97;100.00
69318;BME280;56457;52.190;4.440;2023-04-01T03:40:03;99523.41;;;8.94;100.00
69318;BME280;56457;52.190;4.440;2023-04-01T03:41:04;99526.16;;;8.89;100.00
69318;BME280;56457;52.190;4.440;2023-04-01T03:42:05;99527.78;;;8.93;100.00
69318;BME280;56457;52.190;4.440;2023-04-01T03:43:06;99532.16;;;8.93;100.00
69318;BME280;56457;52.190;4.440;2023-04-01T03:44:08;99542.53;;;8.97;100.00
69318;BME280;56457;52.190;4.440;2023-04-01T03:45:08;99529.53;;;8.93;100.00
69318;BME280;56457;52.190;4.440;2023-04-01T03:46:09;99531.25;;;8.94;100.00
69318;BME280;56457;52.190;4.440;2023-04-01T03:47:09;99533.91;;;8.92;100.00
69318;BME280;56457;52.190;4.440;2023-04-01T03:48:10;99531.25;;;8.95;100.00
69318;BME280;56457;52.190;4.440;2023-04-01T03:49:11;99539.06;;;8.97;100.00
69318;BME280;56457;52.190;4.440;2023-04-01T03:50:11;99534.72;;;8.96;100.00
69318;BME280;56457;52.190;4.440;2023-04-01T03:51:12;99536.47;;;8.95;100.00
69318;BME280;56457;52.190;4.440;2023-04-01T03:52:12;99538.22;;;8.95;100.00
69318;BME280;56457;52.190;4.440;2023-04-01T03:53:13;99545.13;;;8.97;100.00
69318;BME280;56457;52.190;4.440;2023-04-01T03:54:13;99549.47;;;8.98;100.00
69318;BME280;56457;52.190;4.440;2023-04-01T03:55:14;99539.88;;;8.99;100.00
69318;BME280;56457;52.190;4.440;2023-04-01T03:56:15;99550.50;;;8.91;100.00
69318;BME280;56457;52.190;4.440;2023-04-01T03:57:16;99545.31;;;8.89;100.00
69318;BME280;56457;52.190;4.440;2023-04-01T03:58:16;99543.59;;;8.88;100.00
69318;BME280;56457;52.190;4.440;2023-04-01T03:59:17;99555.78;;;8.89;100.00
69318;BME280;56457;52.190;4.440;2023-04-01T04:00:17;99553.94;;;8.93;100.00
69318;BME280;56457;52.190;4.440;2023-04-01T04:01:19;99554.00;;;8.90;100.00
69318;BME280;56457;52.190;4.440;2023-04-01T04:02:20;99553.16;;;8.89;100.00
69318;BME280;56457;52.190;4.440;2023-04-01T04:03:21;99558.31;;;8.93;100.00
69318;BME280;56457;52.190;4.440;2023-04-01T04:04:21;99554.06;;;8.87;100.00
69318;BME280;56457;52.190;4.440;2023-04-01T04:05:22;99563.66;;;8.86;100.00
69318;BME280;56457;52.190;4.440;2023-04-01T04:06:23;99558.41;;;8.88;100.00
69318;BME280;56457;52.190;4.440;2023-04-01T04:07:24;99565.34;;;8.90;100.00
69318;BME280;56457;52.190;4.440;2023-04-01T04:08:24;99574.09;;;8.89;100.00
69318;BME280;56457;52.190;4.440;2023-04-01T04:09:25;99568.03;;;8.86;100.00
69318;BME280;56457;52.190;4.440;2023-04-01T04:10:25;99575.97;;;8.83;100.00
69318;BME280;56457;52.190;4.440;2023-04-01T04:11:26;99568.22;;;8.78;100.00
69318;BME280;56457;52.190;4.440;2023-04-01T04:12:26;99575.06;;;8.84;100.00
69318;BME280;56457;52.190;4.440;2023-04-01T04:13:27;99577.66;;;8.85;100.00
69318;BME280;56457;52.190;4.440;2023-04-01T04:14:27;99576.84;;;8.82;100.00
69318;BME280;56457;52.190;4.440;2023-04-01T04:15:27;99577.59;;;8.87;100.00
69318;BME280;56457;52.190;4.440;2023-04-01T04:16:28;99574.97;;;8.88;100.00
69318;BME280;56457;52.190;4.440;2023-04-01T04:17:28;99574.16;;;8.85;100.00
69318;BME280;56457;52.190;4.440;2023-04-01T04:18:29;99586.34;;;8.86;100.00
69318;BME280;56457;52.190;4.440;2023-04-01T04:19:32;99585.50;;;8.85;100.00
69318;BME280;56457;52.190;4.440;2023-04-01T04:20:34;99588.94;;;8.87;100.00
69318;BME280;56457;52.190;4.440;2023-04-01T04:21:35;99592.28;;;8.94;100.00
69318;BME280;56457;52.190;4.440;2023-04-01T04:22:35;99589.78;;;8.88;100.00
69318;BME280;56457;52.190;4.440;2023-04-01T04:23:35;99590.75;;;8.84;100.00
69318;BME280;56457;52.190;4.440;2023-04-01T04:24:37;99596.91;;;8.81;100.00
69318;BME280;56457;52.190;4.440;2023-04-01T04:25:37;99587.28;;;8.82;100.00
69318;BME280;56457;52.190;4.440;2023-04-01T04:26:38;99597.75;;;8.83;100.00
69318;BME280;56457;52.190;4.440;2023-04-01T04:27:38;99600.28;;;8.86;100.00
69318;BME280;56457;52.190;4.440;2023-04-01T04:28:39;99595.00;;;8.88;100.00
69318;BME280;56457;52.190;4.440;2023-04-01T04:29:39;99596.84;;;8.84;100.00
69318;BME280;56457;52.190;4.440;2023-04-01T04:30:40;99598.56;;;8.85;100.00
69318;BME280;56457;52.190;4.440;2023-04-01T04:31:40;99596.00;;;8.84;100.00
69318;BME280;56457;52.190;4.440;2023-04-01T04:32:41;99599.50;;;8.83;100.00
69318;BME280;56457;52.190;4.440;2023-04-01T04:33:42;99596.84;;;8.84;100.00
69318;BME280;56457;52.190;4.440;2023-04-01T04:34:42;99609.84;;;8.89;100.00
69318;BME280;56457;52.190;4.440;2023-04-01T04:35:43;99597.72;;;8.85;100.00
69318;BME280;56457;52.190;4.440;2023-04-01T04:36:43;99603.84;;;8.84;100.00
69318;BME280;56457;52.190;4.440;2023-04-01T04:37:44;99606.50;;;8.81;100.00
69318;BME280;56457;52.190;4.440;2023-04-01T04:38:44;99608.38;;;8.76;100.00
69318;BME280;56457;52.190;4.440;2023-04-01T04:39:45;99613.59;;;8.76;100.00
69318;BME280;56457;52.190;4.440;2023-04-01T04:40:45;99617.06;;;8.76;100.00
69318;BME280;56457;52.190;4.440;2023-04-01T04:41:46;99615.31;;;8.75;100.00
69318;BME280;56457;52.190;4.440;2023-04-01T04:42:46;99623.25;;;8.72;100.00
69318;BME280;56457;52.190;4.440;2023-04-01T04:43:56;99617.16;;;8.72;100.00
69318;BME280;56457;52.190;4.440;2023-04-01T04:44:56;99624.06;;;8.76;100.00
69318;BME280;56457;52.190;4.440;2023-04-01T04:45:56;99623.22;;;8.74;100.00
69318;BME280;56457;52.190;4.440;2023-04-01T04:46:57;99626.69;;;8.74;100.00
69318;BME280;56457;52.190;4.440;2023-04-01T04:47:57;99634.47;;;8.77;100.00
69318;BME280;56457;52.190;4.440;2023-04-01T04:48:58;99634.44;;;8.79;100.00
69318;BME280;56457;52.190;4.440;2023-04-01T04:49:58;99632.72;;;8.78;100.00
69318;BME280;56457;52.190;4.440;2023-04-01T04:50:59;99631.91;;;8.76;100.00
69318;BME280;56457;52.190;4.440;2023-04-01T04:51:59;99644.00;;;8.80;100.00
69318;BME280;56457;52.190;4.440;2023-04-01T04:53:00;99638.84;;;8.75;100.00
69318;BME280;56457;52.190;4.440;2023-04-01T04:54:01;99632.84;;;8.72;100.00
69318;BME280;56457;52.190;4.440;2023-04-01T04:55:01;99651.16;;;8.72;100.00
69318;BME280;56457;52.190;4.440;2023-04-01T04:56:02;99644.97;;;8.76;100.00
69318;BME280;56457;52.190;4.440;2023-04-01T04:57:02;99646.69;;;8.77;100.00
69318;BME280;56457;52.190;4.440;2023-04-01T04:58:02;99651.16;;;8.72;100.00
69318;BME280;56457;52.190;4.440;2023-04-01T04:59:03;99657.25;;;8.72;100.00
69318;BME280;56457;52.190;4.440;2023-04-01T05:00:03;99650.19;;;8.77;100.00
69318;BME280;56457;52.190;4.440;2023-04-01T05:01:08;99656.22;;;8.79;100.00
69318;BME280;56457;52.190;4.440;2023-04-01T05:02:09;99663.28;;;8.74;100.00
69318;BME280;56457;52.190;4.440;2023-04-01T05:03:10;99658.19;;;8.68;100.00
69318;BME280;56457;52.190;4.440;2023-04-01T05:04:10;99656.41;;;8.70;100.00
69318;BME280;56457;52.190;4.440;2023-04-01T05:05:11;99659.84;;;8.72;100.00
69318;BME280;56457;52.190;4.440;2023-04-01T05:06:12;99660.75;;;8.71;100.00
69318;BME280;56457;52.190;4.440;2023-04-01T05:07:13;99663.28;;;8.76;100.00
69318;BME280;56457;52.190;4.440;2023-04-01T05:08:14;99660.72;;;8.73;100.00
69318;BME280;56457;52.190;4.440;2023-04-01T05:09:15;99660.69;;;8.74;100.00
69318;BME280;56457;52.190;4.440;2023-04-01T05:10:15;99678.03;;;8.78;100.00
69318;BME280;56457;52.190;4.440;2023-04-01T05:11:16;99673.75;;;8.76;100.00
69318;BME280;56457;52.190;4.440;2023-04-01T05:12:17;99671.16;;;8.73;100.00
69318;BME280;56457;52.190;4.440;2023-04-01T05:13:17;99674.72;;;8.70;100.00
69318;BME280;56457;52.190;4.440;2023-04-01T05:14:18;99679.06;;;8.71;100.00
69318;BME280;56457;52.190;4.440;2023-04-01T05:15:18;99676.28;;;8.79;100.00
69318;BME280;56457;52.190;4.440;2023-04-01T05:16:19;99679.69;;;8.84;100.00
69318;BME280;56457;52.190;4.440;2023-04-01T05:17:20;99684.06;;;8.82;100.00
69318;BME280;56457;52.190;4.440;2023-04-01T05:18:23;99678.81;;;8.82;100.00
69318;BME280;56457;52.190;4.440;2023-04-01T05:19:23;99680.69;;;8.75;100.00
69318;BME280;56457;52.190;4.440;2023-04-01T05:20:24;99682.47;;;8.75;100.00
69318;BME280;56457;52.190;4.440;2023-04-01T05:21:24;99687.72;;;8.73;100.00
69318;BME280;56457;52.190;4.440;2023-04-01T05:22:25;99692.88;;;8.78;100.00
69318;BME280;56457;52.190;4.440;2023-04-01T05:23:26;99686.94;;;8.70;100.00
69318;BME280;56457;52.190;4.440;2023-04-01T05:24:26;99689.56;;;8.68;100.00
69318;BME280;56457;52.190;4.440;2023-04-01T05:25:27;99686.13;;;8.66;100.00
69318;BME280;56457;52.190;4.440;2023-04-01T05:26:27;99689.59;;;8.67;100.00
69318;BME280;56457;52.190;4.440;2023-04-01T05:27:27;99693.84;;;8.72;100.00
69318;BME280;56457;52.190;4.440;2023-04-01T05:28:28;99693.06;;;8.67;100.00
69318;BME280;56457;52.190;4.440;2023-04-01T05:29:28;99697.50;;;8.63;100.00
69318;BME280;56457;52.190;4.440;2023-04-01T05:30:29;99695.69;;;8.67;100.00
69318;BME280;56457;52.190;4.440;2023-04-01T05:31:29;99696.50;;;8.71;100.00
69318;BME280;56457;52.190;4.440;2023-04-01T05:32:30;99701.72;;;8.69;100.00
69318;BME280;56457;52.190;4.440;2023-04-01T05:33:31;99709.63;;;8.68;100.00
69318;BME280;56457;52.190;4.440;2023-04-01T05:34:32;99707.03;;;8.66;100.00
69318;BME280;56457;52.190;4.440;2023-04-01T05:35:32;99702.69;;;8.65;100.00
69318;BME280;56457;52.190;4.440;2023-04-01T05:36:32;99706.22;;;8.62;100.00
69318;BME280;56457;52.190;4.440;2023-04-01T05:37:34;99709.75;;;8.60;100.00
69318;BME280;56457;52.190;4.440;2023-04-01T05:38:34;99712.41;;;8.57;100.00
69318;BME280;56457;52.190;4.440;2023-04-01T05:39:35;99709.72;;;8.61;100.00
69318;BME280;56457;52.190;4.440;2023-04-01T05:40:36;99717.41;;;8.69;100.00
69318;BME280;56457;52.190;4.440;2023-04-01T05:41:37;99722.69;;;8.68;100.00
69318;BME280;56457;52.190;4.440;2023-04-01T05:42:38;99722.72;;;8.66;100.00
69318;BME280;56457;52.190;4.440;2023-04-01T05:43:39;99728.88;;;8.63;100.00